createdAt,value
2022-09-11T00:00:38.718Z,14.31
2022-09-11T00:02:39.977Z,14.33
2022-09-11T00:04:41.636Z,14.35
2022-09-11T00:08:44.568Z,14.36
2022-09-11T00:10:46.108Z,14.33
2022-09-11T00:12:47.851Z,14.38
2022-09-11T00:14:49.314Z,14.39
2022-09-11T00:16:50.334Z,14.38
2022-09-11T00:18:51.753Z,14.44
2022-09-11T00:20:53.299Z,14.36
2022-09-11T00:22:54.378Z,14.39
2022-09-11T00:24:55.525Z,14.4
2022-09-11T00:26:57.213Z,14.39
2022-09-11T00:28:58.845Z,14.37
2022-09-11T00:31:00.530Z,14.39
2022-09-11T00:33:01.396Z,14.42
2022-09-11T00:35:03.071Z,14.48
2022-09-11T00:37:04.284Z,14.49
2022-09-11T00:39:06.086Z,14.46
2022-09-11T00:41:07.576Z,14.46
2022-09-11T00:43:09.104Z,14.52
2022-09-11T00:45:10.691Z,14.5
2022-09-11T00:47:12.083Z,14.51
2022-09-11T00:49:13.357Z,14.45
2022-09-11T00:51:14.953Z,14.5
2022-09-11T00:53:16.131Z,14.48
2022-09-11T00:55:17.140Z,14.47
2022-09-11T00:57:18.125Z,14.49
2022-09-11T00:59:19.658Z,14.47
2022-09-11T01:01:21.536Z,14.52
2022-09-11T01:03:22.996Z,14.5
2022-09-11T01:05:23.857Z,14.54
2022-09-11T01:07:25.698Z,14.53
2022-09-11T01:09:27.547Z,14.55
2022-09-11T01:11:28.885Z,14.57
2022-09-11T01:13:30.243Z,14.58
2022-09-11T01:15:31.873Z,14.57
2022-09-11T01:17:33.611Z,14.57
2022-09-11T01:19:35.000Z,14.59
2022-09-11T01:21:35.945Z,14.6
2022-09-11T01:23:37.580Z,14.59
2022-09-11T01:25:38.854Z,14.57
2022-09-11T01:27:48.384Z,14.57
2022-09-11T01:29:41.907Z,14.61
2022-09-11T01:31:43.291Z,14.62
2022-09-11T01:35:45.535Z,14.65
2022-09-11T01:37:47.376Z,14.67
2022-09-11T01:39:49.242Z,14.68
2022-09-11T01:41:50.682Z,14.67
2022-09-11T01:43:51.986Z,14.66
2022-09-11T01:45:53.335Z,14.71
2022-09-11T01:47:54.394Z,14.7
2022-09-11T01:49:56.006Z,14.71
2022-09-11T01:51:57.604Z,14.71
2022-09-11T01:53:59.296Z,14.7
2022-09-11T01:56:01.171Z,14.63
2022-09-11T01:58:02.359Z,14.62
2022-09-11T02:00:04.244Z,14.74
2022-09-11T02:02:05.711Z,14.75
2022-09-11T02:04:07.022Z,14.74
2022-09-11T02:06:08.675Z,14.75
2022-09-11T02:08:09.712Z,14.78
2022-09-11T02:10:10.943Z,14.73
2022-09-11T02:12:12.623Z,14.7
2022-09-11T02:14:14.166Z,14.72
2022-09-11T02:16:15.932Z,14.72
2022-09-11T02:18:17.266Z,14.76
2022-09-11T02:20:19.067Z,14.78
2022-09-11T02:22:20.663Z,14.75
2022-09-11T02:24:22.217Z,14.73
2022-09-11T02:26:23.774Z,14.71
2022-09-11T02:28:24.929Z,14.73
2022-09-11T02:30:26.005Z,14.68
2022-09-11T02:32:27.826Z,14.7
2022-09-11T02:34:29.325Z,14.67
2022-09-11T02:36:31.064Z,14.7
2022-09-11T02:38:32.385Z,14.67
2022-09-11T02:40:33.489Z,14.68
2022-09-11T02:42:34.742Z,14.63
2022-09-11T02:44:36.179Z,14.63
2022-09-11T02:46:37.809Z,14.66
2022-09-11T02:48:39.128Z,14.62
2022-09-11T02:50:40.475Z,14.62
2022-09-11T02:52:42.175Z,14.61
2022-09-11T02:54:43.871Z,14.62
2022-09-11T02:56:45.509Z,14.62
2022-09-11T02:58:46.647Z,14.61
2022-09-11T03:00:48.529Z,14.65
2022-09-11T03:02:49.723Z,14.62
2022-09-11T03:04:51.243Z,14.62
2022-09-11T03:06:52.818Z,14.66
2022-09-11T03:08:54.479Z,14.63
2022-09-11T03:10:55.397Z,14.6
2022-09-11T03:14:58.384Z,14.61
2022-09-11T03:16:59.448Z,14.62
2022-09-11T03:19:00.669Z,14.58
2022-09-11T03:21:02.250Z,14.55
2022-09-11T03:23:03.708Z,14.55
2022-09-11T03:25:05.590Z,14.54
2022-09-11T03:27:07.187Z,14.59
2022-09-11T03:29:08.358Z,14.61
2022-09-11T03:31:10.050Z,14.61
2022-09-11T03:33:11.013Z,14.6
2022-09-11T03:35:12.824Z,14.59
2022-09-11T03:37:14.622Z,14.58
2022-09-11T03:39:15.587Z,14.59
2022-09-11T03:42:00.384Z,14.59
2022-09-11T03:44:01.865Z,14.53
2022-09-11T03:46:02.836Z,14.53
2022-09-11T03:48:04.143Z,14.56
2022-09-11T03:50:05.490Z,14.58
2022-09-11T03:52:06.672Z,14.59
2022-09-11T03:54:08.067Z,14.61
2022-09-11T03:56:09.419Z,14.59
2022-09-11T03:58:11.192Z,14.59
2022-09-11T04:00:12.761Z,14.6
2022-09-11T04:02:14.442Z,14.58
2022-09-11T04:04:15.867Z,14.59
2022-09-11T04:06:17.501Z,14.56
2022-09-11T04:08:19.231Z,14.53
2022-09-11T04:10:20.603Z,14.51
2022-09-11T04:12:22.494Z,14.51
2022-09-11T04:14:23.910Z,14.5
2022-09-11T04:16:25.403Z,14.54
2022-09-11T04:18:26.427Z,14.57
2022-09-11T04:20:27.340Z,14.55
2022-09-11T04:22:28.314Z,14.56
2022-09-11T04:24:30.183Z,14.55
2022-09-11T04:26:31.156Z,14.59
2022-09-11T04:28:32.459Z,14.56
2022-09-11T04:30:33.955Z,14.6
2022-09-11T04:32:35.627Z,14.57
2022-09-11T04:34:36.747Z,14.57
2022-09-11T04:36:38.195Z,14.55
2022-09-11T04:38:39.289Z,14.55
2022-09-11T04:40:40.213Z,14.53
2022-09-11T04:42:41.452Z,14.51
2022-09-11T04:44:42.757Z,14.45
2022-09-11T04:46:44.103Z,14.54
2022-09-11T04:50:46.675Z,14.53
2022-09-11T04:52:47.984Z,14.52
2022-09-11T04:54:49.397Z,14.53
2022-09-11T04:56:50.681Z,14.53
2022-09-11T04:58:51.864Z,14.52
2022-09-11T05:00:52.857Z,14.51
2022-09-11T05:02:54.678Z,14.52
2022-09-11T05:04:56.255Z,14.52
2022-09-11T05:06:57.798Z,14.52
2022-09-11T05:08:59.314Z,14.54
2022-09-11T05:11:00.524Z,14.49
2022-09-11T05:13:02.065Z,14.48
2022-09-11T05:15:03.010Z,14.46
2022-09-11T05:17:04.143Z,14.48
2022-09-11T05:19:05.668Z,14.51
2022-09-11T05:21:07.176Z,14.48
2022-09-11T05:23:08.122Z,14.51
2022-09-11T05:25:09.162Z,14.5
2022-09-11T05:27:10.518Z,14.52
2022-09-11T05:29:11.956Z,14.52
2022-09-11T05:31:13.471Z,14.52
2022-09-11T05:33:14.724Z,14.54
2022-09-11T05:35:16.313Z,14.55
2022-09-11T05:37:17.342Z,14.54
2022-09-11T05:39:19.161Z,14.57
2022-09-11T05:41:20.698Z,14.59
2022-09-11T05:43:22.599Z,14.6
2022-09-11T05:45:23.662Z,14.62
2022-09-11T05:47:25.310Z,14.62
2022-09-11T05:49:27.087Z,14.64
2022-09-11T05:51:28.889Z,14.64
2022-09-11T05:53:30.204Z,14.7
2022-09-11T05:55:31.464Z,14.71
2022-09-11T05:57:32.457Z,14.73
2022-09-11T05:59:33.637Z,14.77
2022-09-11T06:01:35.331Z,14.81
2022-09-11T06:03:36.609Z,14.82
2022-09-11T06:05:38.226Z,14.88
2022-09-11T06:07:39.136Z,14.91
2022-09-11T06:09:40.522Z,14.96
2022-09-11T06:11:41.419Z,14.85
2022-09-11T06:13:42.738Z,14.92
2022-09-11T06:15:46.801Z,15.06
2022-09-11T06:17:44.668Z,15.01
2022-09-11T06:19:46.432Z,15.07
2022-09-11T06:21:47.438Z,15.09
2022-09-11T06:23:49.232Z,15.13
2022-09-11T06:25:50.918Z,15.13
2022-09-11T06:27:52.511Z,15.18
2022-09-11T06:29:53.989Z,15.11
2022-09-11T06:31:55.188Z,15.14
2022-09-11T06:33:56.949Z,15.23
2022-09-11T06:35:58.112Z,15.31
2022-09-11T06:37:59.382Z,15.25
2022-09-11T06:40:00.344Z,15.24
2022-09-11T06:42:02.026Z,15.27
2022-09-11T06:44:03.456Z,15.22
2022-09-11T06:46:05.241Z,15.22
2022-09-11T06:48:06.539Z,15.27
2022-09-11T06:50:07.455Z,15.32
2022-09-11T06:52:08.973Z,15.32
2022-09-11T06:54:10.563Z,15.34
2022-09-11T06:56:11.809Z,15.32
2022-09-11T06:58:12.926Z,15.32
2022-09-11T07:00:14.337Z,15.37
2022-09-11T07:02:15.333Z,15.38
2022-09-11T07:04:16.498Z,15.37
2022-09-11T07:06:18.191Z,15.37
2022-09-11T07:08:23.028Z,15.42
2022-09-11T07:10:20.923Z,15.45
2022-09-11T07:12:21.854Z,15.42
2022-09-11T07:14:23.672Z,15.42
2022-09-11T07:16:25.372Z,15.43
2022-09-11T07:18:26.475Z,15.51
2022-09-11T07:20:27.864Z,15.47
2022-09-11T07:22:29.218Z,15.57
2022-09-11T07:24:31.015Z,15.65
2022-09-11T07:26:31.921Z,15.74
2022-09-11T07:28:33.144Z,15.8
2022-09-11T07:30:34.036Z,15.91
2022-09-11T07:32:35.101Z,15.93
2022-09-11T07:34:36.737Z,16.12
2022-09-11T07:36:38.468Z,16.27
2022-09-11T07:38:39.854Z,16.31
2022-09-11T07:40:41.106Z,16.52
2022-09-11T07:42:42.629Z,16.59
2022-09-11T07:44:44.147Z,16.72
2022-09-11T07:46:45.454Z,16.52
2022-09-11T07:48:47.196Z,16.34
2022-09-11T07:50:48.880Z,16.39
2022-09-11T07:52:50.590Z,16.31
2022-09-11T07:54:51.510Z,16.28
2022-09-11T07:56:53.008Z,16.31
2022-09-11T07:58:54.801Z,16.32
2022-09-11T08:00:55.947Z,16.26
2022-09-11T08:02:57.776Z,16.19
2022-09-11T08:04:58.608Z,16.08
2022-09-11T08:06:59.754Z,16.1
2022-09-11T08:09:01.243Z,16.08
2022-09-11T08:11:02.619Z,16.07
2022-09-11T08:13:05.140Z,16.17
2022-09-11T08:15:05.290Z,16.33
2022-09-11T08:17:06.765Z,16.28
2022-09-11T08:19:08.183Z,16.26
2022-09-11T08:21:12.697Z,16.45
2022-09-11T08:23:10.979Z,16.55
2022-09-11T08:25:12.738Z,16.74
2022-09-11T08:27:14.407Z,16.9
2022-09-11T08:29:15.676Z,17.04
2022-09-11T08:31:17.132Z,17.14
2022-09-11T08:33:18.171Z,17.11
2022-09-11T08:35:19.416Z,17.25
2022-09-11T08:37:20.458Z,17.29
2022-09-11T08:39:21.860Z,17.38
2022-09-11T08:41:23.389Z,17.59
2022-09-11T08:43:24.514Z,17.98
2022-09-11T08:45:25.952Z,17.76
2022-09-11T08:47:27.444Z,17.34
2022-09-11T08:49:28.947Z,17.33
2022-09-11T08:51:30.379Z,17.33
2022-09-11T08:53:32.029Z,17.11
2022-09-11T08:55:33.408Z,17.14
2022-09-11T08:57:34.277Z,17.14
2022-09-11T08:59:35.435Z,17.17
2022-09-11T09:03:37.851Z,17.37
2022-09-11T09:05:39.479Z,17.28
2022-09-11T09:07:40.921Z,17.28
2022-09-11T09:09:41.940Z,17.11
2022-09-11T09:11:43.126Z,17.25
2022-09-11T09:13:44.641Z,17.32
2022-09-11T09:15:45.980Z,17.37
2022-09-11T09:17:47.336Z,17.85
2022-09-11T09:19:49.019Z,18.14
2022-09-11T09:21:50.157Z,18.06
2022-09-11T09:23:51.357Z,18.35
2022-09-11T09:25:52.912Z,18.34
2022-09-11T09:27:53.871Z,18.5
2022-09-11T09:29:55.064Z,18.8
2022-09-11T09:31:56.535Z,18.88
2022-09-11T09:33:57.980Z,18.86
2022-09-11T09:35:59.651Z,19.51
2022-09-11T09:38:00.438Z,19.29
2022-09-11T09:40:10.668Z,19.44
2022-09-11T09:42:02.850Z,19.47
2022-09-11T09:44:04.576Z,19.15
2022-09-11T09:46:05.882Z,19
2022-09-11T09:48:07.360Z,18.87
2022-09-11T09:50:08.913Z,18.9
2022-09-11T09:52:10.512Z,18.52
2022-09-11T09:54:12.288Z,18.33
2022-09-11T09:56:13.726Z,18.35
2022-09-11T09:58:15.268Z,18.28
2022-09-11T10:00:16.592Z,18.44
2022-09-11T10:02:18.456Z,18.26
2022-09-11T10:06:20.311Z,18.39
2022-09-11T10:08:21.663Z,18.49
2022-09-11T10:10:23.269Z,18.24
2022-09-11T10:12:24.909Z,18.04
2022-09-11T10:14:49.614Z,18.05
2022-09-11T10:16:27.720Z,18.12
2022-09-11T10:18:28.669Z,17.93
2022-09-11T10:20:30.191Z,17.76
2022-09-11T10:22:31.744Z,17.77
2022-09-11T10:24:32.775Z,17.81
2022-09-11T10:25:16.471Z,17.86
2022-09-11T10:27:21.528Z,18.27
2022-09-11T10:29:20.072Z,18.93
2022-09-11T10:31:21.469Z,19.85
2022-09-11T10:33:22.103Z,20.38
2022-09-11T10:35:23.628Z,19.87
2022-09-11T10:37:25.138Z,19.83
2022-09-11T10:39:26.661Z,19.84
2022-09-11T10:41:27.677Z,19.78
2022-09-11T10:43:28.672Z,19.38
2022-09-11T10:45:30.245Z,19.31
2022-09-11T10:47:31.489Z,19.24
2022-09-11T10:49:32.753Z,19.55
2022-09-11T10:51:33.747Z,20.35
2022-09-11T10:53:35.133Z,20.95
2022-09-11T10:55:36.340Z,20.74
2022-09-11T10:57:37.588Z,21.3
2022-09-11T10:59:39.227Z,21.38
2022-09-11T11:01:40.580Z,20.83
2022-09-11T11:03:41.702Z,21
2022-09-11T11:05:42.731Z,20.97
2022-09-11T11:07:44.452Z,21.26
2022-09-11T11:09:46.241Z,21.52
2022-09-11T11:11:47.768Z,21.32
2022-09-11T11:13:48.618Z,21.36
2022-09-11T11:15:49.412Z,21.29
2022-09-11T11:17:50.913Z,21.34
2022-09-11T11:19:52.645Z,20.97
2022-09-11T11:21:53.507Z,21.62
2022-09-11T11:23:54.778Z,21.82
2022-09-11T11:25:56.197Z,21.43
2022-09-11T11:27:57.572Z,21.72
2022-09-11T11:29:58.570Z,21.46
2022-09-11T11:31:59.740Z,21.1
2022-09-11T11:34:01.284Z,21.82
2022-09-11T11:36:02.899Z,21.8
2022-09-11T11:38:03.890Z,22.58
2022-09-11T11:40:05.197Z,22.87
2022-09-11T11:42:06.361Z,22.74
2022-09-11T11:44:08.068Z,23.09
2022-09-11T11:46:09.029Z,23.41
2022-09-11T11:48:10.260Z,23.49
2022-09-11T11:50:11.757Z,23.14
2022-09-11T11:52:13.005Z,23.09
2022-09-11T11:54:14.543Z,22.5
2022-09-11T11:56:15.747Z,22.12
2022-09-11T11:58:17.204Z,21.46
2022-09-11T12:00:18.130Z,21.69
2022-09-11T12:02:19.684Z,21.83
2022-09-11T12:04:20.607Z,21.36
2022-09-11T12:06:22.040Z,21.32
2022-09-11T12:08:23.673Z,20.89
2022-09-11T12:10:24.908Z,21.07
2022-09-11T12:12:26.185Z,21.05
2022-09-11T12:14:27.328Z,20.79
2022-09-11T12:16:28.332Z,20.78
2022-09-11T12:18:29.649Z,20.52
2022-09-11T12:20:30.968Z,20.55
2022-09-11T12:24:32.925Z,20.36
2022-09-11T12:26:33.886Z,20.34
2022-09-11T12:28:35.580Z,20.2
2022-09-11T12:30:36.877Z,20.03
2022-09-11T12:32:37.855Z,19.92
2022-09-11T12:34:39.053Z,19.84
2022-09-11T12:36:40.630Z,19.74
2022-09-11T12:38:42.413Z,19.57
2022-09-11T12:40:43.594Z,19.48
2022-09-11T12:42:44.889Z,19.49
2022-09-11T12:44:45.749Z,19.54
2022-09-11T12:46:46.695Z,19.67
2022-09-11T12:49:00.437Z,19.65
2022-09-11T12:50:48.830Z,19.44
2022-09-11T12:52:50.447Z,19.57
2022-09-11T12:54:51.583Z,19.74
2022-09-11T12:56:53.160Z,19.82
2022-09-11T12:58:54.618Z,19.95
2022-09-11T13:00:56.533Z,20.08
2022-09-11T13:02:57.409Z,20.06
2022-09-11T13:04:58.574Z,20.26
2022-09-11T13:07:00.027Z,20.32
2022-09-11T13:09:01.062Z,20.44
2022-09-11T13:11:02.121Z,20.4
2022-09-11T13:13:03.131Z,20.53
2022-09-11T13:15:04.284Z,20.62
2022-09-11T13:17:06.051Z,20.86
2022-09-11T13:19:07.142Z,21.22
2022-09-11T13:21:08.202Z,21.95
2022-09-11T13:23:09.820Z,21.96
2022-09-11T13:25:10.822Z,21.79
2022-09-11T13:27:11.939Z,21.73
2022-09-11T13:29:13.509Z,21.35
2022-09-11T13:31:14.935Z,21.33
2022-09-11T13:33:16.484Z,21.12
2022-09-11T13:35:17.820Z,21.06
2022-09-11T13:37:19.178Z,20.91
2022-09-11T13:39:20.096Z,20.78
2022-09-11T13:41:21.289Z,20.51
2022-09-11T13:43:22.213Z,20.44
2022-09-11T13:45:23.813Z,20.38
2022-09-11T13:47:24.686Z,20.4
2022-09-11T13:49:25.682Z,20.44
2022-09-11T13:51:27.033Z,20.33
2022-09-11T13:53:28.176Z,20.38
2022-09-11T13:55:29.469Z,20.46
2022-09-11T13:57:31.030Z,20.74
2022-09-11T13:59:31.900Z,21.06
2022-09-11T14:01:32.965Z,21.84
2022-09-11T14:03:34.389Z,22.39
2022-09-11T14:05:35.379Z,22.43
2022-09-11T14:07:36.532Z,22.07
2022-09-11T14:09:38.128Z,21.69
2022-09-11T14:11:39.030Z,21.75
2022-09-11T14:13:40.798Z,21.69
2022-09-11T14:15:42.023Z,21.43
2022-09-11T14:17:43.355Z,20.97
2022-09-11T14:19:44.536Z,20.87
2022-09-11T14:21:45.776Z,20.82
2022-09-11T14:23:47.279Z,20.56
2022-09-11T14:25:48.218Z,20.58
2022-09-11T14:27:49.472Z,20.59
2022-09-11T14:29:50.744Z,20.59
2022-09-11T14:31:51.633Z,20.44
2022-09-11T14:33:53.958Z,20.38
2022-09-11T14:35:54.768Z,20.36
2022-09-11T14:37:56.214Z,20.33
2022-09-11T14:39:57.670Z,20.28
2022-09-11T14:41:58.886Z,20.3
2022-09-11T14:44:00.235Z,20.23
2022-09-11T14:46:01.124Z,20.44
2022-09-11T14:48:02.806Z,20.81
2022-09-11T14:50:04.133Z,21.06
2022-09-11T14:52:05.822Z,21.42
2022-09-11T14:54:07.155Z,21.67
2022-09-11T14:56:08.358Z,22.3
2022-09-11T14:58:09.939Z,22.37
2022-09-11T15:00:10.924Z,22.41
2022-09-11T15:02:11.893Z,22.2
2022-09-11T15:04:13.518Z,22.14
2022-09-11T15:06:14.911Z,22.06
2022-09-11T15:08:16.470Z,22.36
2022-09-11T15:10:17.811Z,22.38
2022-09-11T15:12:19.213Z,22.65
2022-09-11T15:14:27.783Z,22.39
2022-09-11T15:16:22.014Z,21.99
2022-09-11T15:18:23.676Z,22.31
2022-09-11T15:20:24.959Z,22.34
2022-09-11T15:22:26.167Z,21.7
2022-09-11T15:24:27.655Z,21.84
2022-09-11T15:26:28.824Z,21.7
2022-09-11T15:28:30.438Z,21.43
2022-09-11T15:30:31.810Z,21.12
2022-09-11T15:32:33.081Z,21.09
2022-09-11T15:34:33.911Z,21.32
2022-09-11T15:36:35.601Z,21.09
2022-09-11T15:38:36.862Z,21.17
2022-09-11T15:40:37.948Z,21.05
2022-09-11T15:42:39.759Z,21.09
2022-09-11T15:44:40.743Z,21.07
2022-09-11T15:46:42.157Z,21
2022-09-11T15:48:43.483Z,20.99
2022-09-11T15:50:44.597Z,21.03
2022-09-11T15:52:54.104Z,21.28
2022-09-11T15:54:47.695Z,21.07
2022-09-11T15:56:48.979Z,21.06
2022-09-11T15:58:50.568Z,21.07
2022-09-11T16:00:52.037Z,21.08
2022-09-11T16:02:53.746Z,21.1
2022-09-11T16:04:54.754Z,21.15
2022-09-11T16:06:55.764Z,21.1
2022-09-11T16:08:57.434Z,20.85
2022-09-11T16:10:59.202Z,20.82
2022-09-11T16:13:00.794Z,21.08
2022-09-11T16:15:01.768Z,21.31
2022-09-11T16:17:02.946Z,21.44
2022-09-11T16:19:03.889Z,21.38
2022-09-11T16:21:05.575Z,21.31
2022-09-11T16:23:06.798Z,21.24
2022-09-11T16:25:07.870Z,21.41
2022-09-11T16:27:08.786Z,21.78
2022-09-11T16:29:10.125Z,21.33
2022-09-11T16:31:11.553Z,21.42
2022-09-11T16:33:12.279Z,21.29
2022-09-11T16:35:13.860Z,21.55
2022-09-11T16:37:15.426Z,21.8
2022-09-11T16:39:16.498Z,22.27
2022-09-11T16:41:17.930Z,22.27
2022-09-11T16:43:21.436Z,22.09
2022-09-11T16:45:20.715Z,21.79
2022-09-11T16:47:21.531Z,21.07
2022-09-11T16:49:22.483Z,20.84
2022-09-11T16:51:23.518Z,20.55
2022-09-11T16:53:24.350Z,20.48
2022-09-11T16:55:25.865Z,20.38
2022-09-11T16:57:26.871Z,20.29
2022-09-11T16:59:27.992Z,20.13
2022-09-11T17:01:29.732Z,20.05
2022-09-11T17:03:31.401Z,19.82
2022-09-11T17:05:32.965Z,19.74
2022-09-11T17:07:34.304Z,19.64
2022-09-11T17:09:35.356Z,19.61
2022-09-11T17:11:36.593Z,19.41
2022-09-11T17:12:20.331Z,19.42
2022-09-11T17:14:22.088Z,19.36
2022-09-11T17:16:23.548Z,19.25
2022-09-11T17:18:24.978Z,19.13
2022-09-11T17:20:25.903Z,19.06
2022-09-11T17:22:26.857Z,18.88
2022-09-11T17:24:28.439Z,18.75
2022-09-11T17:26:29.525Z,18.6
2022-09-11T17:28:31.355Z,18.47
2022-09-11T17:30:32.334Z,18.33
2022-09-11T17:32:33.828Z,18.28
2022-09-11T17:34:35.252Z,18.21
2022-09-11T17:36:36.838Z,18.07
2022-09-11T17:38:38.098Z,18.07
2022-09-11T17:40:39.472Z,18
2022-09-11T17:42:41.078Z,17.84
2022-09-11T17:44:42.719Z,17.78
2022-09-11T17:46:44.000Z,17.63
2022-09-11T17:48:45.168Z,17.52
2022-09-11T17:50:46.386Z,17.36
2022-09-11T17:52:47.680Z,17.19
2022-09-11T17:54:48.711Z,17.06
2022-09-11T17:56:50.105Z,16.9
2022-09-11T17:58:51.011Z,16.76
2022-09-11T18:00:52.658Z,16.63
2022-09-11T18:02:54.081Z,16.57
2022-09-11T18:04:55.032Z,16.59
2022-09-11T18:06:56.893Z,16.41
2022-09-11T18:08:58.329Z,16.39
2022-09-11T18:10:59.780Z,16.34
2022-09-11T18:13:00.694Z,16.32
2022-09-11T18:15:02.581Z,16.23
2022-09-11T18:17:03.866Z,16.3
2022-09-11T18:19:04.819Z,16.3
2022-09-11T18:21:06.232Z,16.3
2022-09-11T18:23:07.448Z,16.22
2022-09-11T18:25:09.693Z,16.03
2022-09-11T18:27:10.077Z,15.92
2022-09-11T18:29:11.199Z,15.77
2022-09-11T18:31:12.154Z,15.61
2022-09-11T18:33:14.004Z,15.56
2022-09-11T18:35:14.844Z,15.72
2022-09-11T18:37:16.609Z,15.74
2022-09-11T18:39:17.611Z,15.75
2022-09-11T18:41:18.730Z,15.6
2022-09-11T18:43:20.207Z,15.59
2022-09-11T18:45:21.934Z,15.48
2022-09-11T18:47:22.854Z,15.37
2022-09-11T18:49:24.401Z,15.25
2022-09-11T18:51:25.848Z,15.08
2022-09-11T18:53:27.126Z,15.01
2022-09-11T18:55:28.976Z,14.96
2022-09-11T18:57:30.575Z,14.84
2022-09-11T18:59:31.580Z,14.83
2022-09-11T19:03:34.254Z,14.9
2022-09-11T19:05:35.317Z,14.89
2022-09-11T19:07:36.458Z,14.81
2022-09-11T19:09:39.907Z,14.69
2022-09-11T19:11:39.435Z,14.56
2022-09-11T19:13:40.953Z,14.48
2022-09-11T19:15:42.621Z,14.42
2022-09-11T19:17:47.142Z,14.37
2022-09-11T19:19:45.237Z,14.27
2022-09-11T19:21:46.710Z,14.16
2022-09-11T19:23:48.517Z,14.04
2022-09-11T19:25:50.088Z,13.87
2022-09-11T19:27:51.940Z,13.76
2022-09-11T19:29:53.668Z,13.73
2022-09-11T19:31:54.590Z,13.8
2022-09-11T19:33:55.979Z,13.8
2022-09-11T19:35:56.844Z,13.94
2022-09-11T19:37:57.969Z,13.92
2022-09-11T19:40:00.473Z,13.83
2022-09-11T19:42:00.759Z,13.85
2022-09-11T19:44:01.828Z,13.8
2022-09-11T19:46:03.704Z,13.68
2022-09-11T19:48:05.537Z,13.61
2022-09-11T19:50:06.860Z,13.64
2022-09-11T19:52:08.448Z,13.85
2022-09-11T19:54:10.162Z,13.81
2022-09-11T19:56:11.293Z,13.84
2022-09-11T19:58:12.601Z,13.88
2022-09-11T20:00:14.374Z,13.78
2022-09-11T20:04:17.423Z,13.68
2022-09-11T20:06:18.636Z,13.58
2022-09-11T20:08:20.081Z,13.47
2022-09-11T20:10:21.506Z,13.34
2022-09-11T20:12:22.857Z,13.4
2022-09-11T20:14:24.677Z,13.47
2022-09-11T20:16:25.781Z,13.41
2022-09-11T20:18:27.104Z,13.32
2022-09-11T20:20:28.839Z,13.18
2022-09-11T20:22:30.707Z,13.05
2022-09-11T20:24:32.293Z,13.01
2022-09-11T20:26:34.065Z,13
2022-09-11T20:28:35.796Z,13.03
2022-09-11T20:30:36.879Z,12.92
2022-09-11T20:32:38.692Z,12.81
2022-09-11T20:34:40.102Z,12.79
2022-09-11T20:36:41.543Z,12.79
2022-09-11T20:38:42.770Z,12.8
2022-09-11T20:40:44.004Z,12.83
2022-09-11T20:42:45.314Z,12.84
2022-09-11T20:44:46.866Z,12.82
2022-09-11T20:46:47.925Z,12.73
2022-09-11T20:48:49.550Z,12.71
2022-09-11T20:50:50.480Z,12.78
2022-09-11T20:52:51.764Z,12.74
2022-09-11T20:54:52.737Z,12.64
2022-09-11T20:56:54.160Z,12.54
2022-09-11T20:58:55.387Z,12.48
2022-09-11T21:00:57.192Z,12.48
2022-09-11T21:03:00.511Z,12.62
2022-09-11T21:05:00.703Z,12.56
2022-09-11T21:07:01.644Z,12.66
2022-09-11T21:09:03.402Z,12.67
2022-09-11T21:11:04.927Z,12.61
2022-09-11T21:13:06.696Z,12.53
2022-09-11T21:15:07.714Z,12.46
2022-09-11T21:17:08.765Z,12.43
2022-09-11T21:19:10.074Z,12.35
2022-09-11T21:21:11.540Z,12.41
2022-09-11T21:23:13.139Z,12.43
2022-09-11T21:27:15.687Z,12.31
2022-09-11T21:29:17.281Z,12.18
2022-09-11T21:31:18.269Z,12.03
2022-09-11T21:33:19.393Z,11.91
2022-09-11T21:35:21.041Z,11.97
2022-09-11T21:37:22.252Z,12.02
2022-09-11T21:39:24.103Z,11.93
2022-09-11T21:41:25.811Z,11.88
2022-09-11T21:43:27.245Z,11.88
2022-09-11T21:45:28.458Z,11.99
2022-09-11T21:47:29.562Z,11.96
2022-09-11T21:49:30.910Z,11.88
2022-09-11T21:51:32.307Z,11.95
2022-09-11T21:53:34.135Z,11.95
2022-09-11T21:55:35.646Z,11.89
2022-09-11T21:57:36.682Z,11.82
2022-09-11T21:59:37.689Z,11.71
2022-09-11T22:01:39.198Z,11.57
2022-09-11T22:03:40.763Z,11.61
2022-09-11T22:05:42.245Z,11.74
2022-09-11T22:07:43.373Z,11.81
2022-09-11T22:09:45.225Z,11.56
2022-09-11T22:11:46.236Z,11.51
2022-09-11T22:13:47.437Z,11.42
2022-09-11T22:15:48.607Z,11.54
2022-09-11T22:17:50.071Z,11.54
2022-09-11T22:19:51.887Z,11.5
2022-09-11T22:21:53.517Z,11.48
2022-09-11T22:23:54.921Z,11.51
2022-09-11T22:25:56.182Z,11.5
2022-09-11T22:27:57.125Z,11.51
2022-09-11T22:29:58.095Z,11.56
2022-09-11T22:31:59.613Z,11.53
2022-09-11T22:34:00.796Z,11.54
2022-09-11T22:36:02.615Z,11.49
2022-09-11T22:38:04.143Z,11.41
2022-09-11T22:40:05.791Z,11.33
2022-09-11T22:42:06.840Z,11.27
2022-09-11T22:44:08.034Z,11.24
2022-09-11T22:46:10.015Z,11.24
2022-09-11T22:48:11.808Z,11.21
2022-09-11T22:50:12.990Z,11.08
2022-09-11T22:52:21.968Z,11.19
2022-09-11T22:54:15.636Z,11.23
2022-09-11T22:56:16.990Z,11.28
2022-09-11T22:58:18.357Z,11.32
2022-09-11T23:00:20.127Z,11.28
2022-09-11T23:02:21.681Z,11.28
2022-09-11T23:04:22.948Z,11.23
2022-09-11T23:06:23.917Z,11.23
2022-09-11T23:08:25.528Z,11.17
2022-09-11T23:10:26.496Z,11.12
2022-09-11T23:12:28.333Z,11.02
2022-09-11T23:14:29.417Z,10.99
2022-09-11T23:16:30.561Z,11.09
2022-09-11T23:18:31.845Z,10.99
2022-09-11T23:20:33.599Z,10.98
2022-09-11T23:22:35.520Z,10.89
2022-09-11T23:24:37.477Z,10.95
2022-09-11T23:26:39.271Z,10.88
2022-09-11T23:28:41.038Z,10.9
2022-09-11T23:30:42.445Z,10.93
2022-09-11T23:32:43.967Z,11
2022-09-11T23:34:45.312Z,10.98
2022-09-11T23:36:46.558Z,10.95
2022-09-11T23:38:48.098Z,10.88
2022-09-11T23:40:49.928Z,10.87
2022-09-11T23:42:50.965Z,10.81
2022-09-11T23:44:51.948Z,10.72
2022-09-11T23:46:53.295Z,10.72
2022-09-11T23:50:56.321Z,10.8
2022-09-11T23:52:57.601Z,10.72
2022-09-11T23:54:59.327Z,10.74
2022-09-11T23:57:00.496Z,10.72
2022-09-11T23:59:45.943Z,10.73
